createdAt,value
2023-02-17T00:00:07.299Z,53.00
2023-02-17T00:01:29.445Z,56.55
2023-02-17T00:02:49.988Z,52.83
2023-02-17T00:04:10.810Z,56.22
2023-02-17T00:05:31.684Z,60.17
2023-02-17T00:06:52.628Z,70.68
2023-02-17T00:08:13.667Z,57.30
2023-02-17T00:09:34.301Z,58.97
2023-02-17T00:10:56.713Z,61.50
2023-02-17T00:12:19.132Z,65.80
2023-02-17T00:13:39.860Z,64.20
2023-02-17T00:15:00.426Z,83.82
2023-02-17T00:16:22.512Z,64.97
2023-02-17T00:17:43.141Z,61.72
2023-02-17T00:19:04.132Z,59.15
2023-02-17T00:20:24.757Z,70.35
2023-02-17T00:21:45.521Z,67.78
2023-02-17T00:23:06.226Z,70.15
2023-02-17T00:24:29.786Z,81.50
2023-02-17T00:25:50.458Z,70.20
2023-02-17T00:27:11.200Z,74.22
2023-02-17T00:28:33.871Z,60.97
2023-02-17T00:29:54.519Z,72.38
2023-02-17T00:31:17.933Z,68.57
2023-02-17T00:32:38.631Z,77.35
2023-02-17T00:33:59.527Z,73.65
2023-02-17T00:35:20.357Z,69.43
2023-02-17T00:36:41.131Z,70.45
2023-02-17T00:38:01.599Z,80.33
2023-02-17T00:39:22.621Z,76.80
2023-02-17T00:40:43.167Z,69.10
2023-02-17T00:42:03.922Z,63.60
2023-02-17T00:43:24.803Z,68.65
2023-02-17T00:44:46.809Z,64.00
2023-02-17T00:46:07.872Z,71.35
2023-02-17T00:47:28.918Z,58.83
2023-02-17T00:48:50.167Z,84.00
2023-02-17T00:50:11.118Z,62.60
2023-02-17T00:51:32.023Z,81.07
2023-02-17T00:52:52.838Z,76.47
2023-02-17T00:54:13.809Z,72.93
2023-02-17T00:55:34.405Z,67.85
2023-02-17T00:56:55.332Z,79.15
2023-02-17T00:58:16.370Z,111.65
2023-02-17T00:59:37.278Z,85.95
2023-02-17T01:01:01.026Z,77.07
2023-02-17T01:02:21.857Z,115.53
2023-02-17T01:03:42.604Z,72.95
2023-02-17T01:05:03.470Z,87.93
2023-02-17T01:06:25.802Z,79.07
2023-02-17T01:07:46.657Z,93.07
2023-02-17T01:09:09.084Z,71.93
2023-02-17T01:10:29.656Z,71.35
2023-02-17T01:11:51.130Z,85.22
2023-02-17T01:13:12.732Z,116.40
2023-02-17T01:14:33.798Z,78.60
2023-02-17T01:15:54.670Z,77.95
2023-02-17T01:17:18.918Z,79.82
2023-02-17T01:18:39.433Z,100.25
2023-02-17T01:20:00.153Z,77.40
2023-02-17T01:21:23.313Z,78.55
2023-02-17T01:22:44.249Z,92.90
2023-02-17T01:24:06.931Z,94.97
2023-02-17T01:25:27.582Z,72.82
2023-02-17T01:26:48.796Z,85.30
2023-02-17T01:28:11.244Z,71.72
2023-02-17T01:29:32.100Z,79.63
2023-02-17T01:30:52.571Z,79.13
2023-02-17T01:32:13.219Z,66.20
2023-02-17T01:33:35.541Z,70.88
2023-02-17T01:34:56.112Z,64.70
2023-02-17T01:36:19.986Z,68.55
2023-02-17T01:37:40.549Z,61.40
2023-02-17T01:39:01.480Z,48.83
2023-02-17T01:40:22.521Z,60.45
2023-02-17T01:41:44.061Z,61.17
2023-02-17T01:43:06.333Z,60.17
2023-02-17T01:44:26.928Z,55.75
2023-02-17T01:45:51.218Z,49.25
2023-02-17T01:47:13.146Z,51.67
2023-02-17T01:48:38.187Z,56.17
2023-02-17T01:49:58.873Z,55.67
2023-02-17T01:51:22.644Z,71.38
2023-02-17T01:52:43.717Z,70.35
2023-02-17T01:54:06.904Z,71.20
2023-02-17T01:55:27.728Z,81.10
2023-02-17T01:56:49.298Z,83.15
2023-02-17T01:58:12.387Z,80.22
2023-02-17T01:59:33.486Z,63.17
2023-02-17T02:00:56.402Z,75.47
2023-02-17T02:02:17.419Z,63.25
2023-02-17T02:05:00.886Z,74.97
2023-02-17T02:06:24.948Z,79.05
2023-02-17T02:07:46.735Z,62.78
2023-02-17T02:09:09.652Z,67.75
2023-02-17T02:10:30.621Z,76.38
2023-02-17T02:11:51.425Z,64.82
2023-02-17T02:13:12.701Z,71.45
2023-02-17T02:14:33.187Z,73.47
2023-02-17T02:15:59.768Z,72.38
2023-02-17T02:17:33.108Z,81.78
2023-02-17T02:19:00.144Z,69.38
2023-02-17T02:20:43.605Z,74.78
2023-02-17T02:22:22.248Z,65.10
2023-02-17T02:23:59.249Z,74.28
2023-02-17T02:25:32.930Z,71.32
2023-02-17T02:27:25.554Z,65.68
2023-02-17T02:29:00.697Z,79.55
2023-02-17T02:30:45.052Z,62.08
2023-02-17T02:32:22.450Z,74.85
2023-02-17T02:33:47.526Z,67.40
2023-02-17T02:35:12.902Z,60.30
2023-02-17T02:36:36.788Z,62.08
2023-02-17T02:38:01.501Z,72.00
2023-02-17T02:39:25.071Z,85.93
2023-02-17T02:40:49.973Z,81.32
2023-02-17T02:42:14.854Z,81.00
2023-02-17T02:43:35.839Z,98.22
2023-02-17T02:44:56.648Z,73.78
2023-02-17T02:46:17.662Z,73.00
2023-02-17T02:47:48.538Z,83.60
2023-02-17T02:49:09.562Z,93.55
2023-02-17T02:50:40.895Z,73.07
2023-02-17T02:52:05.930Z,80.25
2023-02-17T02:53:48.976Z,78.35
2023-02-17T02:55:14.940Z,74.22
2023-02-17T02:56:46.061Z,76.95
2023-02-17T02:58:11.424Z,73.65
2023-02-17T02:59:44.474Z,80.10
2023-02-17T03:01:11.956Z,85.32
2023-02-17T03:02:37.844Z,85.22
2023-02-17T03:04:06.699Z,65.63
2023-02-17T03:05:33.007Z,81.32
2023-02-17T03:06:57.294Z,77.45
2023-02-17T03:08:20.889Z,87.03
2023-02-17T03:09:41.854Z,76.82
2023-02-17T03:11:03.889Z,94.07
2023-02-17T03:12:25.159Z,88.38
2023-02-17T03:13:45.876Z,88.45
2023-02-17T03:15:12.727Z,76.25
2023-02-17T03:16:33.649Z,90.55
2023-02-17T03:17:56.833Z,80.18
2023-02-17T03:19:23.732Z,73.95
2023-02-17T03:20:48.350Z,74.25
2023-02-17T03:22:12.044Z,67.40
2023-02-17T03:23:32.911Z,63.08
2023-02-17T03:24:53.525Z,72.03
2023-02-17T03:26:14.307Z,71.40
2023-02-17T03:27:34.920Z,76.10
2023-02-17T03:28:55.978Z,82.53
2023-02-17T03:30:16.703Z,83.85
2023-02-17T03:31:38.034Z,71.65
2023-02-17T03:32:58.713Z,65.78
2023-02-17T03:34:20.640Z,80.35
2023-02-17T03:35:41.386Z,71.53
2023-02-17T03:37:02.189Z,68.35
2023-02-17T03:38:23.495Z,76.28
2023-02-17T03:39:43.967Z,90.63
2023-02-17T03:41:04.846Z,65.03
2023-02-17T03:42:26.045Z,75.30
2023-02-17T03:43:46.697Z,70.85
2023-02-17T03:45:08.462Z,69.25
2023-02-17T03:46:29.214Z,71.55
2023-02-17T03:47:50.029Z,87.15
2023-02-17T03:49:12.951Z,73.55
2023-02-17T03:50:35.355Z,73.53
2023-02-17T03:51:56.254Z,83.68
2023-02-17T03:53:17.031Z,67.47
2023-02-17T03:54:37.605Z,73.65
2023-02-17T03:55:58.563Z,69.55
2023-02-17T03:57:19.203Z,78.53
2023-02-17T03:58:40.467Z,76.47
2023-02-17T04:00:01.432Z,72.30
2023-02-17T04:01:22.476Z,72.25
2023-02-17T04:02:44.309Z,74.25
2023-02-17T04:04:05.065Z,66.15
2023-02-17T04:05:25.996Z,74.80
2023-02-17T04:06:48.036Z,73.97
2023-02-17T04:08:08.918Z,82.07
2023-02-17T04:09:29.375Z,68.72
2023-02-17T04:10:52.215Z,79.70
2023-02-17T04:12:13.169Z,71.78
2023-02-17T04:13:34.236Z,84.20
2023-02-17T04:14:54.787Z,62.38
2023-02-17T04:16:15.642Z,71.97
2023-02-17T04:17:36.779Z,68.88
2023-02-17T04:18:57.380Z,83.90
2023-02-17T04:20:18.392Z,75.38
2023-02-17T04:21:38.937Z,78.03
2023-02-17T04:23:01.125Z,84.95
2023-02-17T04:24:22.046Z,70.05
2023-02-17T04:25:42.935Z,82.53
2023-02-17T04:27:04.729Z,81.03
2023-02-17T04:28:25.261Z,84.28
2023-02-17T04:29:45.761Z,84.72
2023-02-17T04:31:06.532Z,81.88
2023-02-17T04:32:27.265Z,89.57
2023-02-17T04:33:48.182Z,68.57
2023-02-17T04:35:08.843Z,64.40
2023-02-17T04:36:29.365Z,70.70
2023-02-17T04:37:50.429Z,71.57
2023-02-17T04:39:12.681Z,75.77
2023-02-17T04:40:34.028Z,88.00
2023-02-17T04:41:55.004Z,69.55
2023-02-17T04:43:15.753Z,74.85
2023-02-17T04:44:36.231Z,92.43
2023-02-17T04:45:57.614Z,79.38
2023-02-17T04:47:18.840Z,75.75
2023-02-17T04:48:39.660Z,67.45
2023-02-17T04:50:00.667Z,86.03
2023-02-17T04:51:21.110Z,90.88
2023-02-17T04:52:41.739Z,89.00
2023-02-17T04:54:02.453Z,90.32
2023-02-17T04:55:24.396Z,95.43
2023-02-17T04:56:45.148Z,87.82
2023-02-17T04:58:05.872Z,78.50
2023-02-17T04:59:26.571Z,89.90
2023-02-17T05:00:48.524Z,93.10
2023-02-17T05:02:09.556Z,80.80
2023-02-17T05:03:30.396Z,81.10
2023-02-17T05:04:51.200Z,97.10
2023-02-17T05:06:12.453Z,98.28
2023-02-17T05:07:33.255Z,76.10
2023-02-17T05:08:53.906Z,79.72
2023-02-17T05:10:15.597Z,74.05
2023-02-17T05:11:37.595Z,83.35
2023-02-17T05:12:58.109Z,84.25
2023-02-17T05:14:18.810Z,84.75
2023-02-17T05:15:39.517Z,83.00
2023-02-17T05:17:00.426Z,81.38
2023-02-17T05:18:22.177Z,111.50
2023-02-17T05:19:42.541Z,100.53
2023-02-17T05:21:03.562Z,82.25
2023-02-17T05:22:24.534Z,90.13
2023-02-17T05:23:45.631Z,88.63
2023-02-17T05:25:06.898Z,116.60
2023-02-17T05:26:27.487Z,131.15
2023-02-17T05:27:49.639Z,117.97
2023-02-17T05:29:10.206Z,102.00
2023-02-17T05:30:30.780Z,115.65
2023-02-17T05:31:51.326Z,103.70
2023-02-17T05:33:12.110Z,114.50
2023-02-17T05:34:33.142Z,115.85
2023-02-17T05:35:53.673Z,109.80
2023-02-17T05:37:14.218Z,106.63
2023-02-17T05:38:35.670Z,99.88
2023-02-17T05:39:56.257Z,106.85
2023-02-17T05:41:17.548Z,123.78
2023-02-17T05:42:38.146Z,100.60
2023-02-17T05:44:00.235Z,106.55
2023-02-17T05:45:20.705Z,119.53
2023-02-17T05:46:41.495Z,103.75
2023-02-17T05:48:02.367Z,105.47
2023-02-17T05:49:23.305Z,96.13
2023-02-17T05:50:43.843Z,84.93
2023-02-17T05:52:05.205Z,100.57
2023-02-17T05:53:26.017Z,102.93
2023-02-17T05:54:46.816Z,82.05
2023-02-17T05:56:07.886Z,101.15
2023-02-17T05:57:28.839Z,103.47
2023-02-17T05:58:49.636Z,91.20
2023-02-17T06:00:13.230Z,96.45
2023-02-17T06:01:34.428Z,93.68
2023-02-17T06:02:56.013Z,74.95
2023-02-17T06:04:16.847Z,79.97
2023-02-17T06:05:37.766Z,68.10
2023-02-17T06:06:58.483Z,76.35
2023-02-17T06:08:19.492Z,72.47
2023-02-17T06:09:40.274Z,67.43
2023-02-17T06:11:00.956Z,73.57
2023-02-17T06:12:21.858Z,65.10
2023-02-17T06:13:42.699Z,71.78
2023-02-17T06:15:03.921Z,60.00
2023-02-17T06:16:25.878Z,59.85
2023-02-17T06:17:46.632Z,52.05
2023-02-17T06:19:07.285Z,52.15
2023-02-17T06:20:28.167Z,51.57
2023-02-17T06:21:48.797Z,60.42
2023-02-17T06:23:09.695Z,51.03
2023-02-17T06:24:30.500Z,47.72
2023-02-17T06:25:51.332Z,56.83
2023-02-17T06:27:12.124Z,58.35
2023-02-17T06:28:34.791Z,63.30
2023-02-17T06:29:55.700Z,60.55
2023-02-17T06:32:34.449Z,48.83
2023-02-17T06:33:54.959Z,50.20
2023-02-17T06:35:15.994Z,53.95
2023-02-17T06:36:36.310Z,49.58
2023-02-17T06:37:56.915Z,51.15
2023-02-17T06:39:17.451Z,53.22
2023-02-17T06:40:38.257Z,66.70
2023-02-17T06:41:59.067Z,56.03
2023-02-17T06:43:19.805Z,60.00
2023-02-17T06:44:41.421Z,52.93
2023-02-17T06:46:02.476Z,53.65
2023-02-17T06:47:23.284Z,47.45
2023-02-17T06:48:45.120Z,48.13
2023-02-17T06:50:07.281Z,51.70
2023-02-17T06:51:27.712Z,45.80
2023-02-17T06:52:48.623Z,53.92
2023-02-17T06:54:09.477Z,45.17
2023-02-17T06:55:30.240Z,52.83
2023-02-17T06:56:51.547Z,52.67
2023-02-17T06:58:11.990Z,42.85
2023-02-17T06:59:32.955Z,54.63
2023-02-17T07:00:53.593Z,46.23
2023-02-17T07:02:15.070Z,39.58
2023-02-17T07:03:35.539Z,39.67
2023-02-17T07:04:57.644Z,40.20
2023-02-17T07:06:18.102Z,40.08
2023-02-17T07:07:38.381Z,38.35
2023-02-17T07:08:59.005Z,35.63
2023-02-17T07:10:19.928Z,37.63
2023-02-17T07:11:40.903Z,35.90
2023-02-17T07:13:02.124Z,37.35
2023-02-17T07:14:24.891Z,44.78
2023-02-17T07:15:48.360Z,53.70
2023-02-17T07:17:08.872Z,53.97
2023-02-17T07:18:29.550Z,46.33
2023-02-17T07:19:50.612Z,41.55
2023-02-17T07:21:12.826Z,40.53
2023-02-17T07:22:33.330Z,48.38
2023-02-17T07:24:07.223Z,44.90
2023-02-17T07:25:28.135Z,46.55
2023-02-17T07:26:48.749Z,46.92
2023-02-17T07:28:09.647Z,45.35
2023-02-17T07:29:30.361Z,46.72
2023-02-17T07:30:51.144Z,53.13
2023-02-17T07:32:12.105Z,45.30
2023-02-17T07:33:33.004Z,36.45
2023-02-17T07:34:53.321Z,46.60
2023-02-17T07:36:16.517Z,41.70
2023-02-17T07:37:37.376Z,37.55
2023-02-17T07:38:58.150Z,44.85
2023-02-17T07:40:19.116Z,51.45
2023-02-17T07:41:39.436Z,41.67
2023-02-17T07:42:59.980Z,38.92
2023-02-17T07:44:20.350Z,38.47
2023-02-17T07:45:40.833Z,36.85
2023-02-17T07:47:01.795Z,47.13
2023-02-17T07:48:22.491Z,35.65
2023-02-17T07:49:43.194Z,40.28
2023-02-17T07:51:07.327Z,47.65
2023-02-17T07:52:29.559Z,41.60
2023-02-17T07:53:51.534Z,50.72
2023-02-17T07:55:12.042Z,47.15
2023-02-17T07:56:32.515Z,49.47
2023-02-17T07:57:53.276Z,42.45
2023-02-17T07:59:14.213Z,58.55
2023-02-17T08:00:34.713Z,45.42
2023-02-17T08:01:55.632Z,44.40
2023-02-17T08:03:16.128Z,40.83
2023-02-17T08:04:36.716Z,40.73
2023-02-17T08:05:57.227Z,40.25
2023-02-17T08:07:18.084Z,47.67
2023-02-17T08:08:40.431Z,41.03
2023-02-17T08:10:01.610Z,44.38
2023-02-17T08:11:22.147Z,46.03
2023-02-17T08:12:42.703Z,42.80
2023-02-17T08:14:03.376Z,47.50
2023-02-17T08:15:24.189Z,50.63
2023-02-17T08:16:45.180Z,39.63
2023-02-17T08:18:05.854Z,41.45
2023-02-17T08:19:31.754Z,54.17
2023-02-17T08:21:01.471Z,49.17
2023-02-17T08:22:21.988Z,42.22
2023-02-17T08:23:45.454Z,38.80
2023-02-17T08:25:06.614Z,37.55
2023-02-17T08:26:27.239Z,44.17
2023-02-17T08:27:47.873Z,48.25
2023-02-17T08:29:08.806Z,39.73
2023-02-17T08:30:29.629Z,40.88
2023-02-17T08:31:52.694Z,38.08
2023-02-17T08:33:13.645Z,40.00
2023-02-17T08:34:34.262Z,34.72
2023-02-17T08:35:54.702Z,41.47
2023-02-17T08:37:15.513Z,36.47
2023-02-17T08:38:36.110Z,42.38
2023-02-17T08:40:00.506Z,37.87
2023-02-17T08:41:22.745Z,42.10
2023-02-17T08:42:43.566Z,40.13
2023-02-17T08:44:07.976Z,38.80
2023-02-17T08:45:28.462Z,33.05
2023-02-17T08:46:50.629Z,39.03
2023-02-17T08:48:11.038Z,41.03
2023-02-17T08:49:31.943Z,38.60
2023-02-17T08:50:52.482Z,38.67
2023-02-17T08:52:12.895Z,51.47
2023-02-17T08:53:34.105Z,36.67
2023-02-17T08:54:54.808Z,35.80
2023-02-17T08:56:16.803Z,42.17
2023-02-17T08:57:37.375Z,42.97
2023-02-17T08:58:58.169Z,38.92
2023-02-17T09:00:19.150Z,36.70
2023-02-17T09:01:40.456Z,33.88
2023-02-17T09:03:02.105Z,35.17
2023-02-17T09:04:22.889Z,49.70
2023-02-17T09:05:43.743Z,41.47
2023-02-17T09:07:04.221Z,43.00
2023-02-17T09:08:25.436Z,32.92
2023-02-17T09:09:46.141Z,31.38
2023-02-17T09:11:09.444Z,35.22
2023-02-17T09:12:31.480Z,37.83
2023-02-17T09:13:52.056Z,37.33
2023-02-17T09:15:12.625Z,36.75
2023-02-17T09:16:33.932Z,33.95
2023-02-17T09:17:54.762Z,32.08
2023-02-17T09:19:15.685Z,36.08
2023-02-17T09:20:36.854Z,37.38
2023-02-17T09:21:57.451Z,37.10
2023-02-17T09:23:18.376Z,36.13
2023-02-17T09:24:40.122Z,35.28
2023-02-17T09:26:03.677Z,42.38
2023-02-17T09:27:24.570Z,32.20
2023-02-17T09:28:47.192Z,44.47
2023-02-17T09:30:08.804Z,32.15
2023-02-17T09:31:30.021Z,38.70
2023-02-17T09:32:50.812Z,38.78
2023-02-17T09:34:11.752Z,40.60
2023-02-17T09:35:33.035Z,37.80
2023-02-17T09:36:53.804Z,34.70
2023-02-17T09:38:14.548Z,36.10
2023-02-17T09:39:35.387Z,28.85
2023-02-17T09:40:59.589Z,34.50
2023-02-17T09:42:23.527Z,31.15
2023-02-17T09:43:45.986Z,36.60
2023-02-17T09:45:11.891Z,32.42
2023-02-17T09:46:36.885Z,29.20
2023-02-17T09:48:00.339Z,28.40
2023-02-17T09:49:24.818Z,31.67
2023-02-17T09:50:49.168Z,25.92
2023-02-17T09:52:14.425Z,26.27
2023-02-17T09:53:38.423Z,22.80
2023-02-17T09:55:04.470Z,25.42
2023-02-17T09:56:32.563Z,27.67
2023-02-17T09:57:56.532Z,28.95
2023-02-17T09:59:20.361Z,28.17
2023-02-17T10:00:43.931Z,25.73
2023-02-17T10:02:07.367Z,27.92
2023-02-17T10:03:32.033Z,32.25
2023-02-17T10:04:53.592Z,29.63
2023-02-17T10:06:17.371Z,23.13
2023-02-17T10:07:44.055Z,32.05
2023-02-17T10:09:11.906Z,26.77
2023-02-17T10:10:39.726Z,29.92
2023-02-17T10:12:02.921Z,28.50
2023-02-17T10:13:25.317Z,28.60
2023-02-17T10:14:52.015Z,24.30
2023-02-17T10:16:19.542Z,36.25
2023-02-17T10:17:44.473Z,28.35
2023-02-17T10:19:10.840Z,31.05
2023-02-17T10:20:33.811Z,26.00
2023-02-17T10:22:02.076Z,33.05
2023-02-17T10:23:24.552Z,25.75
2023-02-17T10:24:45.449Z,25.08
2023-02-17T10:26:22.140Z,27.63
2023-02-17T10:27:44.757Z,29.00
2023-02-17T10:29:07.099Z,29.63
2023-02-17T10:30:34.559Z,24.25
2023-02-17T10:32:05.082Z,29.67
2023-02-17T10:33:29.436Z,28.52
2023-02-17T10:35:08.545Z,31.38
2023-02-17T10:36:36.279Z,26.23
2023-02-17T10:38:00.044Z,27.73
2023-02-17T10:39:32.100Z,31.65
2023-02-17T10:40:54.938Z,23.95
2023-02-17T10:42:20.709Z,30.35
2023-02-17T10:43:42.773Z,34.40
2023-02-17T10:45:05.365Z,25.88
2023-02-17T10:46:28.918Z,26.05
2023-02-17T10:47:59.203Z,31.67
2023-02-17T10:49:25.200Z,31.60
2023-02-17T10:50:46.754Z,23.33
2023-02-17T10:52:17.594Z,23.38
2023-02-17T10:53:39.359Z,26.83
2023-02-17T10:55:08.759Z,33.88
2023-02-17T10:56:43.801Z,33.88
2023-02-17T10:58:10.481Z,35.33
2023-02-17T10:59:34.334Z,25.05
2023-02-17T11:00:55.980Z,24.20
2023-02-17T11:02:20.521Z,36.88
2023-02-17T11:03:42.170Z,32.38
2023-02-17T11:06:23.843Z,29.40
2023-02-17T11:07:45.230Z,24.80
2023-02-17T11:09:07.085Z,35.90
2023-02-17T11:10:30.331Z,29.75
2023-02-17T11:11:55.331Z,29.25
2023-02-17T11:13:30.688Z,25.20
2023-02-17T11:14:54.354Z,31.42
2023-02-17T11:16:22.440Z,25.80
2023-02-17T11:17:45.056Z,27.88
2023-02-17T11:19:06.435Z,29.85
2023-02-17T11:21:51.086Z,29.35
2023-02-17T11:23:23.522Z,26.65
2023-02-17T11:24:44.299Z,20.42
2023-02-17T11:26:10.170Z,24.60
2023-02-17T11:27:30.936Z,36.85
2023-02-17T11:28:51.627Z,31.23
2023-02-17T11:30:17.157Z,28.58
2023-02-17T11:31:38.246Z,32.97
2023-02-17T11:33:11.621Z,32.45
2023-02-17T11:34:33.565Z,29.77
2023-02-17T11:35:54.767Z,33.65
2023-02-17T11:37:21.373Z,30.42
2023-02-17T11:38:45.522Z,30.35
2023-02-17T11:40:26.348Z,31.45
2023-02-17T11:41:47.238Z,34.15
2023-02-17T11:43:08.136Z,40.65
2023-02-17T11:44:29.441Z,73.50
2023-02-17T11:45:59.192Z,38.35
2023-02-17T11:47:30.102Z,38.33
2023-02-17T11:49:02.925Z,34.25
2023-02-17T11:50:40.352Z,42.60
2023-02-17T11:52:16.623Z,44.67
2023-02-17T11:53:47.340Z,40.42
2023-02-17T11:55:18.619Z,39.77
2023-02-17T11:56:42.044Z,37.22
2023-02-17T11:58:17.087Z,33.83
2023-02-17T11:59:51.686Z,36.50
2023-02-17T12:01:22.996Z,32.78
2023-02-17T12:03:08.347Z,37.08
2023-02-17T12:04:32.232Z,35.58
2023-02-17T12:06:01.812Z,31.30
2023-02-17T12:07:34.945Z,30.33
2023-02-17T12:09:03.945Z,31.33
2023-02-17T12:10:32.665Z,30.88
2023-02-17T12:11:59.099Z,28.58
2023-02-17T12:13:29.417Z,29.08
2023-02-17T12:15:03.650Z,33.30
2023-02-17T12:16:39.148Z,29.38
2023-02-17T12:18:07.883Z,27.20
2023-02-17T12:19:46.118Z,27.63
2023-02-17T12:21:09.999Z,26.45
2023-02-17T12:22:35.529Z,29.05
2023-02-17T12:24:07.452Z,23.73
2023-02-17T12:26:50.927Z,31.20
2023-02-17T12:28:30.528Z,22.95
2023-02-17T12:30:05.572Z,25.63
2023-02-17T12:31:43.206Z,23.02
2023-02-17T12:33:39.027Z,30.85
2023-02-17T12:35:10.274Z,34.97
2023-02-17T12:36:33.358Z,26.55
2023-02-17T12:37:56.706Z,29.98
2023-02-17T12:39:21.359Z,27.05
2023-02-17T12:40:45.040Z,29.15
2023-02-17T12:42:10.077Z,31.20
2023-02-17T12:43:35.001Z,24.42
2023-02-17T12:44:58.003Z,23.30
2023-02-17T12:46:23.499Z,25.85
2023-02-17T12:47:50.075Z,36.17
2023-02-17T12:49:13.634Z,29.30
2023-02-17T12:50:38.507Z,29.90
2023-02-17T12:52:04.001Z,35.92
2023-02-17T12:53:37.255Z,32.60
2023-02-17T12:55:00.331Z,30.50
2023-02-17T12:56:47.423Z,34.47
2023-02-17T12:58:12.273Z,32.65
2023-02-17T12:59:34.386Z,28.20
2023-02-17T13:00:58.687Z,35.35
2023-02-17T13:02:20.372Z,41.08
2023-02-17T13:03:40.726Z,39.65
2023-02-17T13:05:02.435Z,42.55
2023-02-17T13:06:27.683Z,38.17
2023-02-17T13:07:49.803Z,38.38
2023-02-17T13:09:17.872Z,37.80
2023-02-17T13:10:40.182Z,31.17
2023-02-17T13:12:30.307Z,42.85
2023-02-17T13:13:51.164Z,38.47
2023-02-17T13:15:31.130Z,37.03
2023-02-17T13:16:52.163Z,39.08
2023-02-17T13:18:14.281Z,31.00
2023-02-17T13:19:35.589Z,44.63
2023-02-17T13:20:58.652Z,32.55
2023-02-17T13:22:23.451Z,37.45
2023-02-17T13:23:46.072Z,42.50
2023-02-17T13:25:10.230Z,36.20
2023-02-17T13:26:32.294Z,35.30
2023-02-17T13:27:53.172Z,36.10
2023-02-17T13:29:32.944Z,42.70
2023-02-17T13:30:55.798Z,42.53
2023-02-17T13:32:27.454Z,33.58
2023-02-17T13:33:49.617Z,40.30
2023-02-17T13:35:30.835Z,50.28
2023-02-17T13:36:51.945Z,45.40
2023-02-17T13:38:13.944Z,37.92
2023-02-17T13:39:36.951Z,41.20
2023-02-17T13:41:00.089Z,43.80
2023-02-17T13:42:39.072Z,38.13
2023-02-17T13:43:59.548Z,39.83
2023-02-17T13:45:25.244Z,41.80
2023-02-17T13:46:46.550Z,50.30
2023-02-17T13:48:13.790Z,39.47
2023-02-17T13:49:34.460Z,43.97
2023-02-17T13:50:56.557Z,38.88
2023-02-17T13:52:19.499Z,41.97
2023-02-17T13:53:42.368Z,41.97
2023-02-17T13:55:05.168Z,33.22
2023-02-17T13:56:26.955Z,36.65
2023-02-17T13:57:52.536Z,34.63
2023-02-17T13:59:16.535Z,46.83
2023-02-17T14:00:36.860Z,46.40
2023-02-17T14:01:57.484Z,38.35
2023-02-17T14:03:21.729Z,34.85
2023-02-17T14:04:43.785Z,41.60
2023-02-17T14:06:05.043Z,52.35
2023-02-17T14:07:26.140Z,48.60
2023-02-17T14:08:48.273Z,41.05
2023-02-17T14:10:20.189Z,37.08
2023-02-17T14:11:40.693Z,50.55
2023-02-17T14:13:01.360Z,33.90
2023-02-17T14:14:24.160Z,46.40
2023-02-17T14:15:53.575Z,39.25
2023-02-17T14:17:27.065Z,31.00
2023-02-17T14:18:47.856Z,52.75
2023-02-17T14:20:27.578Z,39.90
2023-02-17T14:21:59.112Z,40.65
2023-02-17T14:23:19.567Z,34.28
2023-02-17T14:24:41.796Z,38.15
2023-02-17T14:26:09.926Z,51.35
2023-02-17T14:27:41.028Z,37.90
2023-02-17T14:29:03.080Z,38.50
2023-02-17T14:30:32.551Z,41.97
2023-02-17T14:31:53.761Z,44.30
2023-02-17T14:33:23.090Z,39.28
2023-02-17T14:34:43.912Z,34.70
2023-02-17T14:36:06.315Z,35.65
2023-02-17T14:37:27.355Z,49.20
2023-02-17T14:38:54.899Z,39.87
2023-02-17T14:40:18.802Z,39.90
2023-02-17T14:41:39.319Z,36.95
2023-02-17T14:43:00.005Z,49.30
2023-02-17T14:44:20.626Z,42.30
2023-02-17T14:45:41.518Z,41.00
2023-02-17T14:47:01.806Z,47.63
2023-02-17T14:48:22.512Z,41.28
2023-02-17T14:49:42.888Z,47.75
2023-02-17T14:51:03.375Z,40.72
2023-02-17T14:52:25.071Z,50.45
2023-02-17T14:55:13.116Z,47.22
2023-02-17T14:56:36.453Z,52.75
2023-02-17T14:57:57.356Z,40.90
2023-02-17T14:59:18.050Z,43.75
2023-02-17T15:00:38.958Z,49.03
2023-02-17T15:01:59.883Z,45.63
2023-02-17T15:03:21.783Z,38.65
2023-02-17T15:04:42.285Z,42.33
2023-02-17T15:06:03.485Z,36.60
2023-02-17T15:07:24.269Z,46.22
2023-02-17T15:08:45.709Z,38.03
2023-02-17T15:11:32.290Z,45.45
2023-02-17T15:12:54.722Z,39.33
2023-02-17T15:14:16.395Z,31.33
2023-02-17T15:15:37.066Z,51.75
2023-02-17T15:16:57.791Z,42.45
2023-02-17T15:18:19.592Z,47.63
2023-02-17T15:21:00.428Z,41.45
2023-02-17T15:22:21.179Z,52.00
2023-02-17T15:23:41.521Z,38.85
2023-02-17T15:25:02.296Z,36.92
2023-02-17T15:26:23.280Z,35.90
2023-02-17T15:27:44.627Z,41.65
2023-02-17T15:29:06.549Z,41.58
2023-02-17T15:30:28.554Z,47.22
2023-02-17T15:31:50.380Z,43.17
2023-02-17T15:33:12.747Z,46.97
2023-02-17T15:34:33.786Z,36.90
2023-02-17T15:35:54.723Z,41.55
2023-02-17T15:37:15.648Z,42.33
2023-02-17T15:38:36.537Z,45.35
2023-02-17T15:39:57.720Z,35.75
2023-02-17T15:41:20.489Z,40.17
2023-02-17T15:42:41.010Z,41.08
2023-02-17T15:44:02.070Z,38.22
2023-02-17T15:45:24.454Z,32.73
2023-02-17T15:46:45.415Z,42.10
2023-02-17T15:48:08.380Z,48.27
2023-02-17T15:49:29.077Z,51.95
2023-02-17T15:50:50.224Z,40.70
2023-02-17T15:52:11.665Z,41.88
2023-02-17T15:54:52.510Z,41.38
2023-02-17T15:56:16.074Z,44.15
2023-02-17T15:57:38.113Z,39.42
2023-02-17T15:58:59.803Z,40.72
2023-02-17T16:01:42.684Z,42.35
2023-02-17T16:03:03.501Z,39.22
2023-02-17T16:04:23.832Z,49.70
2023-02-17T16:05:44.693Z,45.60
2023-02-17T16:07:05.570Z,41.67
2023-02-17T16:08:26.082Z,49.33
2023-02-17T16:09:46.803Z,48.58
2023-02-17T16:11:09.984Z,39.13
2023-02-17T16:12:30.748Z,46.40
2023-02-17T16:13:51.755Z,47.42
2023-02-17T16:15:14.392Z,46.33
2023-02-17T16:16:35.160Z,50.38
2023-02-17T16:17:57.647Z,41.13
2023-02-17T16:19:18.506Z,43.80
2023-02-17T16:20:39.294Z,45.17
2023-02-17T16:22:00.060Z,44.33
2023-02-17T16:23:20.672Z,33.85
2023-02-17T16:24:41.517Z,41.33
2023-02-17T16:26:02.106Z,36.58
2023-02-17T16:27:22.755Z,48.38
2023-02-17T16:28:43.732Z,46.37
2023-02-17T16:30:15.775Z,51.15
2023-02-17T16:31:36.344Z,40.30
2023-02-17T16:32:58.392Z,44.63
2023-02-17T16:34:20.430Z,57.75
2023-02-17T16:35:41.520Z,50.05
2023-02-17T16:37:04.056Z,42.15
2023-02-17T16:38:25.146Z,38.58
2023-02-17T16:39:46.215Z,45.42
2023-02-17T16:41:06.852Z,47.75
2023-02-17T16:42:27.756Z,42.90
2023-02-17T16:43:48.083Z,49.45
2023-02-17T16:45:14.969Z,58.17
2023-02-17T16:46:36.917Z,39.38
2023-02-17T16:48:00.243Z,41.47
2023-02-17T16:49:24.676Z,47.80
2023-02-17T16:50:45.556Z,55.53
2023-02-17T16:52:12.565Z,40.40
2023-02-17T16:53:33.097Z,60.13
2023-02-17T16:54:54.122Z,46.88
2023-02-17T16:56:16.770Z,43.25
2023-02-17T16:57:37.524Z,46.80
2023-02-17T16:58:57.920Z,44.70
2023-02-17T17:00:24.136Z,45.40
2023-02-17T17:01:45.540Z,42.67
2023-02-17T17:05:48.631Z,51.65
2023-02-17T17:07:13.832Z,40.72
2023-02-17T17:08:34.156Z,41.88
2023-02-17T17:10:14.843Z,50.28
2023-02-17T17:11:35.555Z,45.65
2023-02-17T17:12:56.852Z,44.72
2023-02-17T17:14:17.477Z,57.58
2023-02-17T17:15:40.349Z,43.92
2023-02-17T17:17:01.843Z,61.00
2023-02-17T17:18:23.782Z,42.03
2023-02-17T17:19:44.371Z,54.67
2023-02-17T17:21:05.488Z,47.40
2023-02-17T17:22:26.316Z,43.35
2023-02-17T17:23:47.068Z,48.33
2023-02-17T17:25:08.250Z,43.80
2023-02-17T17:26:32.114Z,50.25
2023-02-17T17:27:53.577Z,48.65
2023-02-17T17:29:15.669Z,43.80
2023-02-17T17:30:36.380Z,40.03
2023-02-17T17:31:57.094Z,42.58
2023-02-17T17:33:17.773Z,56.90
2023-02-17T17:34:39.526Z,47.67
2023-02-17T17:35:59.992Z,55.70
2023-02-17T17:37:20.656Z,40.77
2023-02-17T17:38:41.030Z,44.70
2023-02-17T17:40:01.395Z,38.78
2023-02-17T17:41:23.165Z,45.70
2023-02-17T17:42:43.731Z,48.40
2023-02-17T17:44:04.564Z,51.30
2023-02-17T17:45:25.614Z,49.28
2023-02-17T17:46:46.034Z,49.42
2023-02-17T17:48:06.854Z,44.15
2023-02-17T17:49:27.418Z,47.17
2023-02-17T17:50:50.215Z,32.38
2023-02-17T17:52:12.665Z,41.95
2023-02-17T17:53:33.543Z,46.15
2023-02-17T17:54:54.257Z,46.97
2023-02-17T17:56:17.729Z,50.67
2023-02-17T17:57:38.417Z,49.67
2023-02-17T17:59:00.983Z,48.50
2023-02-17T18:00:21.703Z,46.92
2023-02-17T18:01:45.149Z,53.30
2023-02-17T18:03:06.339Z,49.67
2023-02-17T18:04:27.103Z,48.57